createdAt,value
2023-05-23T00:00:17.267Z,16.30
2023-05-23T00:02:44.762Z,16.30
2023-05-23T00:05:11.766Z,16.40
2023-05-23T00:07:38.472Z,16.20
2023-05-23T00:10:05.893Z,16.30
2023-05-23T00:12:33.568Z,16.20
2023-05-23T00:15:00.695Z,16.20
2023-05-23T00:17:27.840Z,16.10
2023-05-23T00:19:56.177Z,16.00
2023-05-23T00:22:23.190Z,16.00
2023-05-23T00:24:49.978Z,16.00
2023-05-23T00:27:16.862Z,16.00
2023-05-23T00:29:43.640Z,15.90
2023-05-23T00:32:10.458Z,15.90
2023-05-23T00:34:37.816Z,15.90
2023-05-23T00:37:05.429Z,15.90
2023-05-23T00:39:32.193Z,15.90
2023-05-23T00:41:58.933Z,15.90
2023-05-23T00:44:26.784Z,15.90
2023-05-23T00:46:56.556Z,15.90
2023-05-23T00:49:24.359Z,15.80
2023-05-23T00:51:52.187Z,15.80
2023-05-23T00:54:24.125Z,15.80
2023-05-23T00:56:51.346Z,15.90
2023-05-23T00:59:18.356Z,15.90
2023-05-23T01:01:47.349Z,16.00
2023-05-23T01:04:16.577Z,16.00
2023-05-23T01:06:47.080Z,16.00
2023-05-23T01:09:15.972Z,16.00
2023-05-23T01:11:54.359Z,16.00
2023-05-23T01:14:49.088Z,16.10
2023-05-23T01:17:24.324Z,16.10
2023-05-23T01:20:07.928Z,16.10
2023-05-23T01:23:02.826Z,16.10
2023-05-23T01:25:59.378Z,16.10
2023-05-23T01:28:33.563Z,16.10
2023-05-23T01:31:03.662Z,16.10
2023-05-23T01:33:32.752Z,16.10
2023-05-23T01:36:03.599Z,16.10
2023-05-23T01:38:30.742Z,16.20
2023-05-23T01:40:58.132Z,16.20
2023-05-23T01:43:25.427Z,16.10
2023-05-23T01:45:56.262Z,16.10
2023-05-23T01:48:25.459Z,16.20
2023-05-23T01:50:53.394Z,16.20
2023-05-23T01:53:22.961Z,16.10
2023-05-23T01:55:51.010Z,16.10
2023-05-23T01:58:18.228Z,16.10
2023-05-23T02:00:45.864Z,16.10
2023-05-23T02:03:12.896Z,16.10
2023-05-23T02:05:39.935Z,15.90
2023-05-23T02:08:06.979Z,15.90
2023-05-23T02:10:33.671Z,15.90
2023-05-23T02:13:00.464Z,15.90
2023-05-23T02:15:27.192Z,15.90
2023-05-23T02:17:54.058Z,15.90
2023-05-23T02:20:20.872Z,15.90
2023-05-23T02:22:47.720Z,15.90
2023-05-23T02:25:15.743Z,15.90
2023-05-23T02:27:42.670Z,16.00
2023-05-23T02:30:09.920Z,15.90
2023-05-23T02:32:38.028Z,15.90
2023-05-23T02:35:06.226Z,15.90
2023-05-23T02:37:33.161Z,15.90
2023-05-23T02:40:00.068Z,15.90
2023-05-23T02:42:28.157Z,15.90
2023-05-23T02:44:54.953Z,15.90
2023-05-23T02:47:21.704Z,15.80
2023-05-23T02:49:48.531Z,15.90
2023-05-23T02:52:15.529Z,16.00
2023-05-23T02:54:42.393Z,16.10
2023-05-23T02:57:09.180Z,16.10
2023-05-23T02:59:36.173Z,16.10
2023-05-23T03:02:02.914Z,16.10
2023-05-23T03:04:29.684Z,16.00
2023-05-23T03:06:56.577Z,16.00
2023-05-23T03:09:23.359Z,15.90
2023-05-23T03:11:50.097Z,16.00
2023-05-23T03:14:17.006Z,15.90
2023-05-23T03:16:43.829Z,15.90
2023-05-23T03:19:10.775Z,15.90
2023-05-23T03:21:37.613Z,15.90
2023-05-23T03:24:04.470Z,16.00
2023-05-23T03:26:31.475Z,15.90
2023-05-23T03:28:58.332Z,15.90
2023-05-23T03:31:25.106Z,15.90
2023-05-23T03:33:52.071Z,15.90
2023-05-23T03:36:18.784Z,15.80
2023-05-23T03:38:45.497Z,15.80
2023-05-23T03:41:12.226Z,15.80
2023-05-23T03:43:39.046Z,15.80
2023-05-23T03:46:05.949Z,15.70
2023-05-23T03:48:32.669Z,15.60
2023-05-23T03:50:59.502Z,15.60
2023-05-23T03:53:26.213Z,15.60
2023-05-23T03:55:53.992Z,15.60
2023-05-23T03:58:21.080Z,15.50
2023-05-23T04:00:47.886Z,15.50
2023-05-23T04:03:15.710Z,15.50
2023-05-23T04:05:43.062Z,15.60
2023-05-23T04:08:10.071Z,15.60
2023-05-23T04:10:36.805Z,15.50
2023-05-23T04:13:03.487Z,15.50
2023-05-23T04:15:30.295Z,15.50
2023-05-23T04:17:57.101Z,15.50
2023-05-23T04:20:23.960Z,15.50
2023-05-23T04:22:50.646Z,15.50
2023-05-23T04:25:18.847Z,15.50
2023-05-23T04:27:47.286Z,15.50
2023-05-23T04:30:14.348Z,15.60
2023-05-23T04:32:41.151Z,15.50
2023-05-23T04:35:08.210Z,15.50
2023-05-23T04:37:35.313Z,15.50
2023-05-23T04:40:02.175Z,15.50
2023-05-23T04:42:29.635Z,15.50
2023-05-23T04:44:59.532Z,15.50
2023-05-23T04:47:28.673Z,15.50
2023-05-23T04:49:57.073Z,15.40
2023-05-23T04:52:23.788Z,15.40
2023-05-23T04:54:50.761Z,15.30
2023-05-23T04:57:17.686Z,15.30
2023-05-23T04:59:44.570Z,15.20
2023-05-23T05:02:11.380Z,15.20
2023-05-23T05:04:38.114Z,15.20
2023-05-23T05:07:05.264Z,15.10
2023-05-23T05:09:32.146Z,15.10
2023-05-23T05:11:59.588Z,15.10
2023-05-23T05:14:27.628Z,15.10
2023-05-23T05:16:57.876Z,15.10
2023-05-23T05:19:24.795Z,15.10
2023-05-23T05:21:52.416Z,15.10
2023-05-23T05:24:21.124Z,15.10
2023-05-23T05:26:48.744Z,15.20
2023-05-23T05:29:16.080Z,15.20
2023-05-23T05:31:45.182Z,15.30
2023-05-23T05:34:12.727Z,15.30
2023-05-23T05:36:45.973Z,15.40
2023-05-23T05:39:13.835Z,15.30
2023-05-23T05:41:40.919Z,15.30
2023-05-23T05:44:09.897Z,15.30
2023-05-23T05:46:36.684Z,15.20
2023-05-23T05:49:03.502Z,15.20
2023-05-23T05:51:30.252Z,15.20
2023-05-23T05:53:57.114Z,15.20
2023-05-23T05:56:23.933Z,15.20
2023-05-23T05:58:50.715Z,15.20
2023-05-23T06:01:17.447Z,15.20
2023-05-23T06:03:44.721Z,15.20
2023-05-23T06:06:12.034Z,15.20
2023-05-23T06:08:38.917Z,15.10
2023-05-23T06:11:05.931Z,15.20
2023-05-23T06:13:32.668Z,15.20
2023-05-23T06:15:59.519Z,15.20
2023-05-23T06:18:26.418Z,15.20
2023-05-23T06:20:53.131Z,15.20
2023-05-23T06:23:19.905Z,15.20
2023-05-23T06:25:46.627Z,15.20
2023-05-23T06:28:13.390Z,15.20
2023-05-23T06:30:40.437Z,15.20
2023-05-23T06:33:07.486Z,15.20
2023-05-23T06:35:34.240Z,15.20
2023-05-23T06:38:01.098Z,15.30
2023-05-23T06:40:27.839Z,15.30
2023-05-23T06:42:54.666Z,15.20
2023-05-23T06:45:21.441Z,15.10
2023-05-23T06:47:49.261Z,15.10
2023-05-23T06:50:19.771Z,15.20
2023-05-23T06:52:49.973Z,15.20
2023-05-23T06:55:19.437Z,15.30
2023-05-23T06:57:47.244Z,15.30
2023-05-23T07:00:14.919Z,15.20
2023-05-23T07:02:41.780Z,15.30
2023-05-23T07:05:09.120Z,15.40
2023-05-23T07:07:35.891Z,15.40
2023-05-23T07:10:02.744Z,15.50
2023-05-23T07:12:29.473Z,15.50
2023-05-23T07:14:56.390Z,15.60
2023-05-23T07:17:23.197Z,15.80
2023-05-23T07:19:50.084Z,15.70
2023-05-23T07:22:16.854Z,15.50
2023-05-23T07:24:43.629Z,15.60
2023-05-23T07:27:10.348Z,15.50
2023-05-23T07:29:37.109Z,15.60
2023-05-23T07:32:03.945Z,15.70
2023-05-23T07:34:30.797Z,15.60
2023-05-23T07:36:57.529Z,15.60
2023-05-23T07:39:24.518Z,15.70
2023-05-23T07:41:51.475Z,15.60
2023-05-23T07:44:19.872Z,15.70
2023-05-23T07:46:48.036Z,15.70
2023-05-23T07:49:14.795Z,15.70
2023-05-23T07:51:41.838Z,15.60
2023-05-23T07:54:08.635Z,15.50
2023-05-23T07:56:35.441Z,15.60
2023-05-23T07:59:02.411Z,15.60
2023-05-23T08:01:29.604Z,15.70
2023-05-23T08:03:56.500Z,15.70
2023-05-23T08:06:23.289Z,15.70
2023-05-23T08:08:51.045Z,15.70
2023-05-23T08:11:17.865Z,15.70
2023-05-23T08:13:44.864Z,15.70
2023-05-23T08:16:11.673Z,15.80
2023-05-23T08:18:38.793Z,15.80
2023-05-23T08:21:05.637Z,15.80
2023-05-23T08:23:32.354Z,15.70
2023-05-23T08:25:59.125Z,15.80
2023-05-23T08:28:25.844Z,15.70
2023-05-23T08:30:52.577Z,15.70
2023-05-23T08:33:19.349Z,15.70
2023-05-23T08:35:46.691Z,15.70
2023-05-23T08:38:13.633Z,15.60
2023-05-23T08:40:43.923Z,15.70
2023-05-23T08:43:12.350Z,15.60
2023-05-23T08:45:40.905Z,15.60
2023-05-23T08:48:10.202Z,15.60
2023-05-23T08:50:39.997Z,15.50
2023-05-23T08:53:10.297Z,15.40
2023-05-23T08:55:38.306Z,15.30
2023-05-23T08:58:05.689Z,15.30
2023-05-23T09:00:35.006Z,15.40
2023-05-23T09:03:01.961Z,15.40
2023-05-23T09:05:28.801Z,15.30
2023-05-23T09:07:56.792Z,15.30
2023-05-23T09:10:23.655Z,15.40
2023-05-23T09:12:50.643Z,15.40
2023-05-23T09:15:17.606Z,15.50
2023-05-23T09:17:45.100Z,15.50
2023-05-23T09:20:14.619Z,15.60
2023-05-23T09:22:45.832Z,15.60
2023-05-23T09:25:12.605Z,15.60
2023-05-23T09:27:39.400Z,15.60
2023-05-23T09:30:13.073Z,15.60
2023-05-23T09:32:40.400Z,15.60
2023-05-23T09:35:12.459Z,15.50
2023-05-23T09:37:41.058Z,15.50
2023-05-23T09:40:10.430Z,15.40
2023-05-23T09:42:45.751Z,15.40
2023-05-23T09:45:13.287Z,15.20
2023-05-23T09:47:48.822Z,15.20
2023-05-23T09:50:15.585Z,15.10
2023-05-23T09:52:42.445Z,15.00
2023-05-23T09:55:09.909Z,15.00
2023-05-23T09:57:40.347Z,14.90
2023-05-23T10:00:12.383Z,14.80
2023-05-23T10:03:11.027Z,14.90
2023-05-23T10:05:40.813Z,14.90
2023-05-23T10:08:14.522Z,14.90
2023-05-23T10:11:12.999Z,15.10
2023-05-23T10:13:44.895Z,15.30
2023-05-23T10:16:27.508Z,15.50
2023-05-23T10:19:03.065Z,15.80
2023-05-23T10:21:46.604Z,15.90
2023-05-23T10:24:14.185Z,16.00
2023-05-23T10:26:41.380Z,16.00
2023-05-23T10:29:08.082Z,15.90
2023-05-23T10:31:36.465Z,16.00
2023-05-23T10:34:21.424Z,16.00
2023-05-23T10:37:05.979Z,15.80
2023-05-23T10:39:44.354Z,15.80
2023-05-23T10:42:46.140Z,15.70
2023-05-23T10:45:16.487Z,15.80
2023-05-23T10:47:43.389Z,15.60
2023-05-23T10:50:14.968Z,15.70
2023-05-23T10:52:42.700Z,15.80
2023-05-23T10:55:17.918Z,15.90
2023-05-23T10:57:45.205Z,16.00
2023-05-23T11:00:16.496Z,16.10
2023-05-23T11:03:01.013Z,16.00
2023-05-23T11:05:31.910Z,15.60
2023-05-23T11:08:14.696Z,15.40
2023-05-23T11:11:01.241Z,15.00
2023-05-23T11:13:52.753Z,14.90
2023-05-23T11:16:31.976Z,14.90
2023-05-23T11:19:21.040Z,14.90
2023-05-23T11:22:11.154Z,14.90
2023-05-23T11:24:54.612Z,14.90
2023-05-23T11:27:40.402Z,14.90
2023-05-23T11:30:09.769Z,15.00
2023-05-23T11:32:37.250Z,15.10
2023-05-23T11:35:06.320Z,15.20
2023-05-23T11:37:33.562Z,15.20
2023-05-23T11:40:20.672Z,15.30
2023-05-23T11:42:47.377Z,15.40
2023-05-23T11:45:14.149Z,15.30
2023-05-23T11:47:41.825Z,15.40
2023-05-23T11:50:09.017Z,15.70
2023-05-23T11:52:35.998Z,15.80
2023-05-23T11:55:04.091Z,15.90
2023-05-23T11:57:31.106Z,16.10
2023-05-23T11:59:57.940Z,16.50
2023-05-23T12:02:28.500Z,16.70
2023-05-23T12:04:55.485Z,16.70
2023-05-23T12:07:22.488Z,16.90
2023-05-23T12:09:49.319Z,17.40
2023-05-23T12:12:16.515Z,17.50
2023-05-23T12:14:44.734Z,17.30
2023-05-23T12:17:13.210Z,17.10
2023-05-23T12:19:45.401Z,16.90
2023-05-23T12:22:12.173Z,17.10
2023-05-23T12:24:46.992Z,17.30
2023-05-23T12:27:13.766Z,17.30
2023-05-23T12:29:40.470Z,17.30
2023-05-23T12:32:07.597Z,17.10
2023-05-23T12:34:34.424Z,16.90
2023-05-23T12:37:18.071Z,16.80
2023-05-23T12:39:46.769Z,16.70
2023-05-23T12:42:13.644Z,16.60
2023-05-23T12:44:43.258Z,16.70
2023-05-23T12:47:13.382Z,16.80
2023-05-23T12:49:40.252Z,16.90
2023-05-23T12:52:07.404Z,16.90
2023-05-23T12:54:34.144Z,16.90
2023-05-23T12:57:00.977Z,17.00
2023-05-23T12:59:27.752Z,16.90
2023-05-23T13:01:54.996Z,16.80
2023-05-23T13:04:21.905Z,16.60
2023-05-23T13:06:48.706Z,16.50
2023-05-23T13:09:15.396Z,16.60
2023-05-23T13:11:42.217Z,16.60
2023-05-23T13:14:09.186Z,16.60
2023-05-23T13:16:36.545Z,16.90
2023-05-23T13:19:03.470Z,16.90
2023-05-23T13:21:31.705Z,17.00
2023-05-23T13:23:58.597Z,17.10
2023-05-23T13:26:26.242Z,17.30
2023-05-23T13:28:53.106Z,17.40
2023-05-23T13:31:20.074Z,17.80
2023-05-23T13:33:46.983Z,17.90
2023-05-23T13:36:13.711Z,17.50
2023-05-23T13:38:40.457Z,17.40
2023-05-23T13:41:07.777Z,17.30
2023-05-23T13:43:34.537Z,17.70
2023-05-23T13:46:02.874Z,17.90
2023-05-23T13:48:29.735Z,18.70
2023-05-23T13:50:56.847Z,18.80
2023-05-23T13:53:23.894Z,18.60
2023-05-23T13:55:50.706Z,19.40
2023-05-23T13:58:17.610Z,19.40
2023-05-23T14:00:44.518Z,19.00
2023-05-23T14:03:11.946Z,18.70
2023-05-23T14:05:38.972Z,18.70
2023-05-23T14:08:06.094Z,18.60
2023-05-23T14:10:35.840Z,19.20
2023-05-23T14:13:02.717Z,18.90
2023-05-23T14:15:30.677Z,19.60
2023-05-23T14:17:58.603Z,19.70
2023-05-23T14:20:25.506Z,19.80
2023-05-23T14:22:52.589Z,19.60
2023-05-23T14:25:19.429Z,19.50
2023-05-23T14:27:46.199Z,19.20
2023-05-23T14:30:13.342Z,19.10
2023-05-23T14:32:40.484Z,18.80
2023-05-23T14:35:10.062Z,18.70
2023-05-23T14:37:37.107Z,18.40
2023-05-23T14:40:07.465Z,18.20
2023-05-23T14:42:34.284Z,18.10
2023-05-23T14:45:01.282Z,17.90
2023-05-23T14:47:28.228Z,17.80
2023-05-23T14:49:55.011Z,18.00
2023-05-23T14:52:21.835Z,18.00
2023-05-23T14:54:48.563Z,18.10
2023-05-23T14:57:15.634Z,18.20
2023-05-23T14:59:42.438Z,18.10
2023-05-23T15:02:09.346Z,18.20
2023-05-23T15:04:37.271Z,18.10
2023-05-23T15:07:04.463Z,18.20
2023-05-23T15:09:31.401Z,18.20
2023-05-23T15:11:58.416Z,18.00
2023-05-23T15:14:29.524Z,18.10
2023-05-23T15:16:56.714Z,17.90
2023-05-23T15:19:23.777Z,17.90
2023-05-23T15:21:51.720Z,17.70
2023-05-23T15:24:19.221Z,17.70
2023-05-23T15:26:46.052Z,17.80
2023-05-23T15:29:14.592Z,17.70
2023-05-23T15:31:41.644Z,17.80
2023-05-23T15:34:08.543Z,17.80
2023-05-23T15:36:36.535Z,17.80
2023-05-23T15:39:04.680Z,17.70
2023-05-23T15:41:31.643Z,17.80
2023-05-23T15:43:58.615Z,18.10
2023-05-23T15:46:25.419Z,18.10
2023-05-23T15:48:52.317Z,18.00
2023-05-23T15:51:19.090Z,18.20
2023-05-23T15:53:59.958Z,17.90
2023-05-23T15:56:27.913Z,18.00
2023-05-23T15:58:55.174Z,18.00
2023-05-23T16:01:22.142Z,17.80
2023-05-23T16:03:49.875Z,17.90
2023-05-23T16:06:16.870Z,18.00
2023-05-23T16:08:43.642Z,18.20
2023-05-23T16:11:10.588Z,18.30
2023-05-23T16:13:37.327Z,18.30
2023-05-23T16:16:04.809Z,18.60
2023-05-23T16:18:31.764Z,18.60
2023-05-23T16:20:58.594Z,18.60
2023-05-23T16:23:25.848Z,18.70
2023-05-23T16:25:53.295Z,18.70
2023-05-23T16:28:21.358Z,18.60
2023-05-23T16:30:48.337Z,18.70
2023-05-23T16:33:15.228Z,18.60
2023-05-23T16:35:42.244Z,18.70
2023-05-23T16:38:09.288Z,18.60
2023-05-23T16:40:36.070Z,18.50
2023-05-23T16:43:03.977Z,18.20
2023-05-23T16:45:30.827Z,18.00
2023-05-23T16:47:57.790Z,17.90
2023-05-23T16:50:24.611Z,17.60
2023-05-23T16:52:51.358Z,17.60
2023-05-23T16:55:18.058Z,17.50
2023-05-23T16:57:44.790Z,17.60
2023-05-23T17:00:12.554Z,17.70
2023-05-23T17:02:39.447Z,17.60
2023-05-23T17:05:06.709Z,17.60
2023-05-23T17:07:33.556Z,17.60
2023-05-23T17:10:00.613Z,17.50
2023-05-23T17:12:27.385Z,17.30
2023-05-23T17:14:55.798Z,17.20
2023-05-23T17:17:22.596Z,17.30
2023-05-23T17:19:49.673Z,17.20
2023-05-23T17:22:16.433Z,17.10
2023-05-23T17:24:43.294Z,17.00
2023-05-23T17:27:10.128Z,16.90
2023-05-23T17:29:37.133Z,16.80
2023-05-23T17:32:04.143Z,16.90
2023-05-23T17:34:31.117Z,16.70
2023-05-23T17:36:58.006Z,16.70
2023-05-23T17:39:24.948Z,16.70
2023-05-23T17:41:51.963Z,16.70
2023-05-23T17:44:18.825Z,16.80
2023-05-23T17:46:45.717Z,16.80
2023-05-23T17:49:12.755Z,16.90
2023-05-23T17:51:39.452Z,16.90
2023-05-23T17:54:06.251Z,16.80
2023-05-23T17:56:33.000Z,16.90
2023-05-23T17:59:05.168Z,16.80
2023-05-23T18:01:32.436Z,16.80
2023-05-23T18:03:59.224Z,16.80
2023-05-23T18:06:29.554Z,16.70
2023-05-23T18:08:56.588Z,16.60
2023-05-23T18:11:24.323Z,16.50
2023-05-23T18:13:51.440Z,16.50
2023-05-23T18:16:18.231Z,16.50
2023-05-23T18:18:45.030Z,16.60
2023-05-23T18:21:11.836Z,16.50
2023-05-23T18:23:38.822Z,16.40
2023-05-23T18:26:05.613Z,16.50
2023-05-23T18:28:32.468Z,16.40
2023-05-23T18:30:59.201Z,16.30
2023-05-23T18:33:27.678Z,16.30
2023-05-23T18:35:54.678Z,16.10
2023-05-23T18:38:21.698Z,16.00
2023-05-23T18:40:48.505Z,15.90
2023-05-23T18:43:17.436Z,15.90
2023-05-23T18:45:44.616Z,15.80
2023-05-23T18:48:11.504Z,15.90
2023-05-23T18:50:38.688Z,15.80
2023-05-23T18:53:05.692Z,15.70
2023-05-23T18:55:32.649Z,15.50
2023-05-23T18:57:59.381Z,15.50
2023-05-23T19:00:26.116Z,15.50
2023-05-23T19:02:52.983Z,15.40
2023-05-23T19:05:20.628Z,15.40
2023-05-23T19:07:47.398Z,15.40
2023-05-23T19:10:14.159Z,15.30
2023-05-23T19:12:40.929Z,15.30
2023-05-23T19:15:10.336Z,15.30
2023-05-23T19:17:37.292Z,15.20
2023-05-23T19:20:04.775Z,15.10
2023-05-23T19:22:39.054Z,15.00
2023-05-23T19:25:17.066Z,15.00
2023-05-23T19:27:43.801Z,15.00
2023-05-23T19:30:11.526Z,14.90
2023-05-23T19:32:38.409Z,14.90
2023-05-23T19:35:05.881Z,14.80
2023-05-23T19:37:32.704Z,14.70
2023-05-23T19:39:59.472Z,14.60
2023-05-23T19:42:26.347Z,14.60
2023-05-23T19:44:53.366Z,14.60
2023-05-23T19:47:20.182Z,14.50
2023-05-23T19:49:46.933Z,14.50
2023-05-23T19:52:14.292Z,14.40
2023-05-23T19:54:41.151Z,14.40
2023-05-23T19:57:08.005Z,14.40
2023-05-23T19:59:34.732Z,14.30
2023-05-23T20:02:01.546Z,14.30
2023-05-23T20:04:28.461Z,14.30
2023-05-23T20:06:56.063Z,14.20
2023-05-23T20:09:23.538Z,14.20
2023-05-23T20:11:50.328Z,14.10
2023-05-23T20:14:17.157Z,14.10
2023-05-23T20:16:43.951Z,14.10
2023-05-23T20:19:11.137Z,14.00
2023-05-23T20:21:38.018Z,14.00
2023-05-23T20:24:05.085Z,14.00
2023-05-23T20:26:31.862Z,14.00
2023-05-23T20:28:59.860Z,13.90
2023-05-23T20:31:26.680Z,13.90
2023-05-23T20:33:53.493Z,13.90
2023-05-23T20:36:20.981Z,13.80
2023-05-23T20:38:48.086Z,13.80
2023-05-23T20:41:14.987Z,13.70
2023-05-23T20:43:44.232Z,13.70
2023-05-23T20:46:11.678Z,13.60
2023-05-23T20:48:38.748Z,13.60
2023-05-23T20:51:05.967Z,13.50
2023-05-23T20:53:32.927Z,13.50
2023-05-23T20:56:00.642Z,13.50
2023-05-23T20:58:27.600Z,13.50
2023-05-23T21:00:54.593Z,13.40
2023-05-23T21:03:21.607Z,13.40
2023-05-23T21:05:48.429Z,13.30
2023-05-23T21:08:15.329Z,13.30
2023-05-23T21:10:42.375Z,13.30
2023-05-23T21:13:10.097Z,13.20
2023-05-23T21:15:36.842Z,13.20
2023-05-23T21:18:03.729Z,13.20
2023-05-23T21:20:30.694Z,13.10
2023-05-23T21:22:57.624Z,13.00
2023-05-23T21:25:24.542Z,13.00
2023-05-23T21:27:51.274Z,12.90
2023-05-23T21:30:18.653Z,12.90
2023-05-23T21:32:45.507Z,12.90
2023-05-23T21:35:12.309Z,12.80
2023-05-23T21:37:39.095Z,12.80
2023-05-23T21:40:06.781Z,12.70
2023-05-23T21:42:33.604Z,12.70
2023-05-23T21:45:00.466Z,12.60
2023-05-23T21:47:27.276Z,12.60
2023-05-23T21:49:54.018Z,12.60
2023-05-23T21:52:20.825Z,12.60
2023-05-23T21:54:48.781Z,12.60
2023-05-23T21:57:16.253Z,12.50
2023-05-23T21:59:43.074Z,12.50
2023-05-23T22:02:11.352Z,12.40
2023-05-23T22:04:38.134Z,12.40
2023-05-23T22:07:05.336Z,12.40
2023-05-23T22:09:32.151Z,12.30
2023-05-23T22:11:58.897Z,12.30
2023-05-23T22:14:25.887Z,12.20
2023-05-23T22:16:52.727Z,12.20
2023-05-23T22:19:21.096Z,12.20
2023-05-23T22:21:48.000Z,12.10
2023-05-23T22:24:14.804Z,12.10
2023-05-23T22:26:41.568Z,12.10
2023-05-23T22:29:08.317Z,12.00
2023-05-23T22:31:37.349Z,12.00
2023-05-23T22:34:04.268Z,12.00
2023-05-23T22:36:33.414Z,11.90
2023-05-23T22:39:05.273Z,11.90
2023-05-23T22:41:32.332Z,11.90
2023-05-23T22:43:59.262Z,11.80
2023-05-23T22:46:26.055Z,11.80
2023-05-23T22:48:55.176Z,11.80
2023-05-23T22:51:22.261Z,11.70
2023-05-23T22:53:49.161Z,11.70
2023-05-23T22:56:16.844Z,11.70
2023-05-23T22:58:43.615Z,11.60
2023-05-23T23:01:10.376Z,11.60
2023-05-23T23:03:37.292Z,11.50
2023-05-23T23:06:06.212Z,11.50
2023-05-23T23:08:33.367Z,11.50
2023-05-23T23:11:00.134Z,11.50
2023-05-23T23:13:27.101Z,11.50
2023-05-23T23:15:54.449Z,11.40
2023-05-23T23:18:21.247Z,11.40
2023-05-23T23:20:48.352Z,11.40
2023-05-23T23:23:15.238Z,11.40
2023-05-23T23:25:41.958Z,11.30
2023-05-23T23:28:08.690Z,11.30
2023-05-23T23:30:35.462Z,11.30
2023-05-23T23:33:02.351Z,11.20
2023-05-23T23:35:29.212Z,11.20
2023-05-23T23:37:55.992Z,11.20
2023-05-23T23:40:22.693Z,11.20
2023-05-23T23:42:49.408Z,11.00
2023-05-23T23:45:16.122Z,11.00
2023-05-23T23:47:43.203Z,11.00
2023-05-23T23:50:10.171Z,11.00
2023-05-23T23:52:37.386Z,10.90
2023-05-23T23:55:04.627Z,10.90
2023-05-23T23:57:31.492Z,10.90
2023-05-23T23:59:58.269Z,10.90
